createdAt,value
2023-02-12T00:01:27.518Z,8.52
2023-02-12T00:03:54.539Z,8.75
2023-02-12T00:06:23.095Z,8.87
2023-02-12T00:08:51.910Z,8.93
2023-02-12T00:11:21.318Z,8.90
2023-02-12T00:13:48.347Z,8.70
2023-02-12T00:16:18.477Z,9.35
2023-02-12T00:18:46.201Z,8.40
2023-02-12T00:21:13.848Z,8.73
2023-02-12T00:23:41.231Z,9.30
2023-02-12T00:26:15.043Z,9.10
2023-02-12T00:28:41.874Z,9.90
2023-02-12T00:31:11.124Z,9.83
2023-02-12T00:33:38.058Z,9.43
2023-02-12T00:36:05.822Z,8.57
2023-02-12T00:38:32.588Z,8.77
2023-02-12T00:40:59.381Z,8.80
2023-02-12T00:43:26.145Z,10.00
2023-02-12T00:45:53.147Z,9.82
2023-02-12T00:48:20.077Z,9.60
2023-02-12T00:50:48.460Z,10.33
2023-02-12T00:53:15.402Z,10.30
2023-02-12T00:55:42.173Z,9.82
2023-02-12T00:58:09.107Z,10.50
2023-02-12T01:00:36.105Z,10.45
2023-02-12T01:03:02.877Z,10.70
2023-02-12T01:08:16.982Z,10.00
2023-02-12T01:13:32.168Z,13.30
2023-02-12T01:16:15.348Z,10.98
2023-02-12T01:18:42.234Z,10.55
2023-02-12T01:23:44.169Z,10.73
2023-02-12T01:26:11.942Z,10.93
2023-02-12T01:28:43.342Z,10.30
2023-02-12T01:31:17.120Z,10.30
2023-02-12T01:33:44.170Z,10.00
2023-02-12T01:36:11.520Z,10.88
2023-02-12T01:38:38.402Z,10.95
2023-02-12T01:41:27.303Z,10.13
2023-02-12T01:44:20.353Z,11.20
2023-02-12T01:46:49.817Z,11.40
2023-02-12T01:49:23.815Z,11.15
2023-02-12T01:52:13.446Z,11.50
2023-02-12T01:54:41.774Z,11.30
2023-02-12T01:59:59.453Z,12.05
2023-02-12T02:05:18.128Z,11.38
2023-02-12T02:10:32.568Z,12.70
2023-02-12T02:15:49.223Z,13.18
2023-02-12T02:18:30.317Z,12.23
2023-02-12T02:21:06.232Z,12.00
2023-02-12T02:23:57.520Z,13.10
2023-02-12T02:26:36.187Z,12.30
2023-02-12T02:29:17.921Z,13.02
2023-02-12T02:32:02.963Z,13.52
2023-02-12T02:34:35.091Z,13.40
2023-02-12T02:37:32.636Z,13.13
2023-02-12T02:40:19.353Z,14.02
2023-02-12T02:42:59.660Z,14.38
2023-02-12T02:45:43.539Z,13.53
2023-02-12T02:48:22.371Z,15.15
2023-02-12T02:53:30.000Z,18.10
2023-02-12T02:56:02.087Z,18.77
2023-02-12T02:58:57.865Z,18.10
2023-02-12T03:01:43.031Z,16.50
2023-02-12T03:04:19.219Z,17.92
2023-02-12T03:06:52.212Z,17.73
2023-02-12T03:09:41.883Z,16.65
2023-02-12T03:12:16.663Z,17.60
2023-02-12T03:14:55.099Z,17.00
2023-02-12T03:17:34.266Z,17.60
2023-02-12T03:20:30.713Z,17.10
2023-02-12T03:23:12.357Z,16.90
2023-02-12T03:28:36.697Z,15.60
2023-02-12T03:31:29.839Z,16.33
2023-02-12T03:37:08.392Z,16.50
2023-02-12T03:40:05.761Z,16.17
2023-02-12T03:42:47.544Z,16.02
2023-02-12T03:45:36.719Z,15.60
2023-02-12T03:48:24.525Z,15.43
2023-02-12T03:50:57.635Z,14.52
2023-02-12T03:53:29.718Z,13.55
2023-02-12T03:56:31.584Z,13.30
2023-02-12T03:58:58.567Z,10.82
2023-02-12T04:01:26.211Z,10.10
2023-02-12T04:03:53.064Z,11.13
2023-02-12T04:06:22.541Z,9.90
2023-02-12T04:08:49.824Z,9.35
2023-02-12T04:11:30.833Z,30.77
2023-02-12T04:14:06.194Z,28.52
2023-02-12T04:16:56.577Z,10.88
2023-02-12T04:22:19.299Z,8.60
2023-02-12T04:27:47.970Z,8.50
2023-02-12T04:30:20.496Z,8.43
2023-02-12T04:32:53.929Z,7.80
2023-02-12T04:35:38.176Z,7.73
2023-02-12T04:38:21.696Z,7.20
2023-02-12T04:40:50.200Z,6.35
2023-02-12T04:43:30.348Z,6.25
2023-02-12T04:45:57.583Z,6.30
2023-02-12T04:48:24.560Z,6.40
2023-02-12T04:50:51.346Z,6.25
2023-02-12T04:53:18.122Z,5.53
2023-02-12T04:55:44.905Z,5.30
2023-02-12T04:58:11.805Z,5.85
2023-02-12T05:00:38.699Z,5.30
2023-02-12T05:03:05.860Z,5.20
2023-02-12T05:05:33.993Z,5.28
2023-02-12T05:08:00.939Z,5.25
2023-02-12T05:10:27.766Z,5.30
2023-02-12T05:12:55.869Z,5.30
2023-02-12T05:15:22.860Z,5.50
2023-02-12T05:17:49.653Z,5.10
2023-02-12T05:20:16.649Z,5.63
2023-02-12T05:22:43.424Z,5.33
2023-02-12T05:25:10.190Z,5.40
2023-02-12T05:27:36.930Z,4.85
2023-02-12T05:30:04.447Z,5.25
2023-02-12T05:35:17.996Z,4.70
2023-02-12T05:40:31.461Z,4.80
2023-02-12T05:45:44.870Z,4.80
2023-02-12T05:48:11.664Z,4.50
2023-02-12T05:50:38.414Z,4.90
2023-02-12T05:53:05.163Z,4.50
2023-02-12T05:55:31.979Z,4.70
2023-02-12T05:57:58.716Z,4.50
2023-02-12T06:00:25.598Z,4.37
2023-02-12T06:02:52.359Z,4.75
2023-02-12T06:05:19.106Z,5.80
2023-02-12T06:07:45.869Z,4.80
2023-02-12T06:10:12.605Z,4.35
2023-02-12T06:12:39.374Z,4.70
2023-02-12T06:15:06.360Z,4.50
2023-02-12T06:17:34.758Z,4.57
2023-02-12T06:20:01.602Z,4.90
2023-02-12T06:22:28.820Z,4.45
2023-02-12T06:24:55.561Z,5.07
2023-02-12T06:30:09.520Z,8.75
2023-02-12T06:35:23.102Z,5.22
2023-02-12T06:40:36.501Z,6.20
2023-02-12T06:45:49.945Z,6.10
2023-02-12T06:48:16.728Z,6.20
2023-02-12T06:50:43.498Z,5.55
2023-02-12T06:53:10.229Z,5.68
2023-02-12T06:55:37.116Z,6.30
2023-02-12T06:58:04.165Z,5.80
2023-02-12T07:00:30.993Z,5.55
2023-02-12T07:02:57.839Z,6.15
2023-02-12T07:05:25.162Z,6.22
2023-02-12T07:07:52.110Z,5.00
2023-02-12T07:10:19.434Z,5.40
2023-02-12T07:12:46.527Z,5.97
2023-02-12T07:15:15.024Z,6.00
2023-02-12T07:17:41.796Z,4.60
2023-02-12T07:20:09.016Z,4.00
2023-02-12T07:22:38.967Z,4.50
2023-02-12T07:25:06.086Z,5.60
2023-02-12T07:27:35.942Z,7.40
2023-02-12T07:30:03.249Z,8.15
2023-02-12T07:32:32.568Z,7.30
2023-02-12T07:34:59.326Z,5.68
2023-02-12T07:37:26.163Z,5.70
2023-02-12T07:39:52.922Z,5.57
2023-02-12T07:42:19.676Z,4.30
2023-02-12T07:44:46.404Z,4.47
2023-02-12T07:47:13.176Z,5.70
2023-02-12T07:49:39.917Z,5.45
2023-02-12T07:52:06.675Z,5.20
2023-02-12T07:54:33.616Z,4.80
2023-02-12T07:57:00.372Z,4.68
2023-02-12T07:59:27.185Z,4.30
2023-02-12T08:01:54.395Z,3.80
2023-02-12T08:04:23.241Z,3.70
2023-02-12T08:06:53.165Z,5.10
2023-02-12T08:09:25.528Z,4.10
2023-02-12T08:14:39.509Z,3.70
2023-02-12T08:19:28.722Z,0
2023-02-12T08:22:19.588Z,3.80
2023-02-12T08:27:34.238Z,5.50
2023-02-12T08:32:49.762Z,5.68
2023-02-12T08:35:16.843Z,5.30
2023-02-12T08:37:43.634Z,5.63
2023-02-12T08:40:11.138Z,5.20
2023-02-12T08:42:37.874Z,5.30
2023-02-12T08:45:04.902Z,5.40
2023-02-12T08:47:31.693Z,5.90
2023-02-12T08:49:58.425Z,7.72
2023-02-12T08:52:25.225Z,8.10
2023-02-12T08:54:52.059Z,6.15
2023-02-12T08:57:18.807Z,5.55
2023-02-12T08:59:45.626Z,9.80
2023-02-12T09:02:12.414Z,10.00
2023-02-12T09:04:39.226Z,10.40
2023-02-12T09:07:06.930Z,9.53
2023-02-12T09:09:34.555Z,7.82
2023-02-12T09:12:01.366Z,5.50
2023-02-12T09:14:28.129Z,8.05
2023-02-12T09:16:55.112Z,11.85
2023-02-12T09:19:22.376Z,6.32
2023-02-12T09:21:55.503Z,7.00
2023-02-12T09:24:23.312Z,7.72
2023-02-12T09:26:50.083Z,7.90
2023-02-12T09:29:16.873Z,7.95
2023-02-12T09:31:43.740Z,6.40
2023-02-12T09:34:10.709Z,6.97
2023-02-12T09:36:37.642Z,6.40
2023-02-12T09:39:04.601Z,9.35
2023-02-12T09:44:40.988Z,6.50
2023-02-12T09:47:31.129Z,5.60
2023-02-12T09:50:21.223Z,6.00
2023-02-12T09:52:49.385Z,8.00
2023-02-12T09:55:18.256Z,8.60
2023-02-12T09:57:46.100Z,8.32
2023-02-12T10:00:25.128Z,13.40
2023-02-12T10:05:48.113Z,6.47
2023-02-12T10:08:42.542Z,6.20
2023-02-12T10:11:47.179Z,5.60
2023-02-12T10:14:35.437Z,6.30
2023-02-12T10:17:23.366Z,7.00
2023-02-12T10:19:52.945Z,6.60
2023-02-12T10:22:37.480Z,5.95
2023-02-12T10:25:27.049Z,5.55
2023-02-12T10:27:56.815Z,5.50
2023-02-12T10:30:26.409Z,5.97
2023-02-12T10:32:59.170Z,5.88
2023-02-12T10:35:26.552Z,5.40
2023-02-12T10:38:15.964Z,5.90
2023-02-12T10:40:45.033Z,5.35
2023-02-12T10:46:00.302Z,5.18
2023-02-12T10:48:38.228Z,8.40
2023-02-12T10:51:08.026Z,5.80
2023-02-12T10:53:43.616Z,6.35
2023-02-12T10:56:20.853Z,5.72
2023-02-12T10:58:50.383Z,6.13
2023-02-12T11:01:28.436Z,5.80
2023-02-12T11:03:57.352Z,6.20
2023-02-12T11:09:29.492Z,6.30
2023-02-12T11:11:56.693Z,6.40
2023-02-12T11:14:24.409Z,6.28
2023-02-12T11:16:52.606Z,6.18
2023-02-12T11:19:31.502Z,6.30
2023-02-12T11:22:15.256Z,6.00
2023-02-12T11:24:42.084Z,6.00
2023-02-12T11:27:21.475Z,5.90
2023-02-12T11:30:10.693Z,6.72
2023-02-12T11:32:37.848Z,8.90
2023-02-12T11:38:00.271Z,7.10
2023-02-12T11:43:19.118Z,5.97
2023-02-12T11:45:49.142Z,5.00
2023-02-12T11:48:36.672Z,4.88
2023-02-12T11:51:10.427Z,4.60
2023-02-12T11:53:41.566Z,4.60
2023-02-12T11:59:33.105Z,4.90
2023-02-12T12:02:10.290Z,4.80
2023-02-12T12:07:34.584Z,5.30
2023-02-12T12:10:40.188Z,5.45
2023-02-12T12:13:16.238Z,4.90
2023-02-12T12:15:47.839Z,4.80
2023-02-12T12:18:17.675Z,3.90
2023-02-12T12:20:50.625Z,3.53
2023-02-12T12:23:30.522Z,3.60
2023-02-12T12:26:10.562Z,3.45
2023-02-12T12:28:53.717Z,3.80
2023-02-12T12:31:33.244Z,3.80
2023-02-12T12:37:43.707Z,3.78
2023-02-12T12:40:31.753Z,3.08
2023-02-12T12:43:21.624Z,3.40
2023-02-12T12:46:10.164Z,3.80
2023-02-12T12:48:51.981Z,3.58
2023-02-12T12:51:24.976Z,3.80
2023-02-12T12:54:05.373Z,14.32
2023-02-12T12:56:52.353Z,5.93
2023-02-12T13:03:09.219Z,3.20
2023-02-12T13:05:58.048Z,3.00
2023-02-12T13:08:28.072Z,3.40
2023-02-12T13:11:02.751Z,2.85
2023-02-12T13:13:36.087Z,2.90
2023-02-12T13:16:21.376Z,2.17
2023-02-12T13:19:01.711Z,3.13
2023-02-12T13:21:40.820Z,2.40
2023-02-12T13:24:21.741Z,2.13
2023-02-12T13:26:58.487Z,1.80
2023-02-12T13:29:30.788Z,1.80
2023-02-12T13:32:18.274Z,1.48
2023-02-12T13:34:45.235Z,1.60
2023-02-12T13:37:18.774Z,2.00
2023-02-12T13:39:48.051Z,1.60
2023-02-12T13:42:24.532Z,1.65
2023-02-12T13:45:04.267Z,2.50
2023-02-12T13:47:36.902Z,4.73
2023-02-12T13:50:34.577Z,5.32
2023-02-12T13:53:19.289Z,4.10
2023-02-12T13:56:10.664Z,2.38
2023-02-12T13:58:37.393Z,1.90
2023-02-12T14:04:21.277Z,2.20
2023-02-12T14:07:03.242Z,2.53
2023-02-12T14:09:38.092Z,2.92
2023-02-12T14:12:12.066Z,1.90
2023-02-12T14:14:42.814Z,2.20
2023-02-12T14:17:28.348Z,2.67
2023-02-12T14:20:30.345Z,2.60
2023-02-12T14:26:23.682Z,3.35
2023-02-12T14:28:53.216Z,3.05
2023-02-12T14:31:20.089Z,3.20
2023-02-12T14:33:52.299Z,3.00
2023-02-12T14:36:37.389Z,2.92
2023-02-12T14:41:52.653Z,2.90
2023-02-12T14:47:29.810Z,5.97
2023-02-12T14:50:01.878Z,5.07
2023-02-12T14:52:33.304Z,4.07
2023-02-12T14:55:19.724Z,4.07
2023-02-12T14:57:46.940Z,4.30
2023-02-12T15:03:19.995Z,5.30
2023-02-12T15:06:08.437Z,6.32
2023-02-12T15:08:41.190Z,7.10
2023-02-12T15:11:23.153Z,8.23
2023-02-12T15:17:06.387Z,9.27
2023-02-12T15:20:00.839Z,9.80
2023-02-12T15:25:31.178Z,13.32
2023-02-12T15:30:47.496Z,11.80
2023-02-12T15:33:26.628Z,11.70
2023-02-12T15:35:53.604Z,12.02
2023-02-12T15:41:38.227Z,12.90
2023-02-12T15:44:21.502Z,12.80
2023-02-12T15:49:59.849Z,13.05
2023-02-12T15:52:40.132Z,11.68
2023-02-12T15:55:14.195Z,10.55
2023-02-12T16:00:40.751Z,9.80
2023-02-12T16:03:24.177Z,10.50
2023-02-12T16:05:52.348Z,10.20
2023-02-12T16:08:21.446Z,9.80
2023-02-12T16:10:50.753Z,11.70
2023-02-12T16:13:39.584Z,16.00
2023-02-12T16:16:12.511Z,9.80
2023-02-12T16:18:41.509Z,11.27
2023-02-12T16:21:13.602Z,11.32
2023-02-12T16:23:44.134Z,10.80
2023-02-12T16:26:18.570Z,10.15
2023-02-12T16:28:50.577Z,11.00
2023-02-12T16:31:18.688Z,10.82
2023-02-12T16:33:48.558Z,11.73
2023-02-12T16:36:15.358Z,12.32
2023-02-12T16:38:46.600Z,12.55
2023-02-12T16:41:19.117Z,12.82
2023-02-12T16:43:47.354Z,17.63
2023-02-12T16:49:03.718Z,13.80
2023-02-12T16:51:35.752Z,14.90
2023-02-12T16:54:05.154Z,15.02
2023-02-12T16:56:36.723Z,15.07
2023-02-12T16:59:03.496Z,15.80
2023-02-12T17:01:33.942Z,16.00
2023-02-12T17:04:04.159Z,17.60
2023-02-12T17:06:32.920Z,15.57
2023-02-12T17:08:59.976Z,15.50
2023-02-12T17:11:27.942Z,16.60
2023-02-12T17:13:55.612Z,16.38
2023-02-12T17:16:31.745Z,22.67
2023-02-12T17:21:47.519Z,16.70
2023-02-12T17:24:24.627Z,16.58
2023-02-12T17:26:51.635Z,17.40
2023-02-12T17:29:19.698Z,17.55
2023-02-12T17:31:47.228Z,16.30
2023-02-12T17:34:15.376Z,14.85
2023-02-12T17:36:42.811Z,15.15
2023-02-12T17:41:58.812Z,16.40
2023-02-12T17:47:12.809Z,18.05
2023-02-12T17:52:26.466Z,16.02
2023-02-12T17:54:53.249Z,15.13
2023-02-12T17:57:19.976Z,18.80
2023-02-12T17:59:46.725Z,15.43
2023-02-12T18:02:13.501Z,15.50
2023-02-12T18:04:40.366Z,16.40
2023-02-12T18:07:07.164Z,14.77
2023-02-12T18:09:33.995Z,14.20
2023-02-12T18:12:00.720Z,14.23
2023-02-12T18:14:27.532Z,16.33
2023-02-12T18:16:54.391Z,12.77
2023-02-12T18:19:21.162Z,11.27
2023-02-12T18:21:47.898Z,10.50
2023-02-12T18:24:14.933Z,10.30
2023-02-12T18:26:41.809Z,10.20
2023-02-12T18:29:08.606Z,9.60
2023-02-12T18:31:35.512Z,9.80
2023-02-12T18:34:04.010Z,8.98
2023-02-12T18:36:30.768Z,9.50
2023-02-12T18:38:57.549Z,9.95
2023-02-12T18:44:14.384Z,9.35
2023-02-12T18:49:28.742Z,24.88
2023-02-12T18:54:42.285Z,10.50
2023-02-12T18:59:55.716Z,9.02
2023-02-12T19:02:22.886Z,9.60
2023-02-12T19:04:49.775Z,10.10
2023-02-12T19:07:16.586Z,9.57
2023-02-12T19:09:43.554Z,10.00
2023-02-12T19:12:10.308Z,10.00
2023-02-12T19:14:37.050Z,9.50
2023-02-12T19:17:03.816Z,9.10
2023-02-12T19:19:30.565Z,9.02
2023-02-12T19:21:57.339Z,8.85
2023-02-12T19:24:24.208Z,9.30
2023-02-12T19:26:52.826Z,9.18
2023-02-12T19:29:19.553Z,8.88
2023-02-12T19:31:46.723Z,9.70
2023-02-12T19:34:17.483Z,9.07
2023-02-12T19:36:44.537Z,9.60
2023-02-12T19:39:14.777Z,9.57
2023-02-12T19:41:42.283Z,10.20
2023-02-12T19:44:19.265Z,10.45
2023-02-12T19:46:46.861Z,10.80
2023-02-12T19:49:19.356Z,10.00
2023-02-12T19:51:46.710Z,10.50
2023-02-12T19:54:15.207Z,10.43
2023-02-12T19:56:42.384Z,10.55
2023-02-12T19:59:11.305Z,11.32
2023-02-12T20:01:38.159Z,12.63
2023-02-12T20:06:52.462Z,12.27
2023-02-12T20:12:07.526Z,12.40
2023-02-12T20:17:20.994Z,13.40
2023-02-12T20:19:47.766Z,13.13
2023-02-12T20:22:14.509Z,12.80
2023-02-12T20:24:41.350Z,13.70
2023-02-12T20:27:08.093Z,13.82
2023-02-12T20:29:34.858Z,13.45
2023-02-12T20:32:01.720Z,13.05
2023-02-12T20:34:28.489Z,12.50
2023-02-12T20:36:55.291Z,13.85
2023-02-12T20:39:22.135Z,14.30
2023-02-12T20:41:49.473Z,13.00
2023-02-12T20:44:19.783Z,13.10
2023-02-12T20:46:50.041Z,12.82
2023-02-12T20:49:19.427Z,13.38
2023-02-12T20:54:37.028Z,13.80
2023-02-12T20:57:03.940Z,18.65
2023-02-12T20:59:30.692Z,13.90
2023-02-12T21:01:57.482Z,13.07
2023-02-12T21:04:24.256Z,13.25
2023-02-12T21:06:51.012Z,12.60
2023-02-12T21:09:17.845Z,13.07
2023-02-12T21:11:44.861Z,12.93
2023-02-12T21:14:28.037Z,12.80
2023-02-12T21:16:55.771Z,13.63
2023-02-12T21:19:22.832Z,13.13
2023-02-12T21:21:49.684Z,12.73
2023-02-12T21:24:18.936Z,12.32
2023-02-12T21:26:45.755Z,12.60
2023-02-12T21:29:12.730Z,13.02
2023-02-12T21:31:42.041Z,12.80
2023-02-12T21:34:12.424Z,12.93
2023-02-12T21:36:41.554Z,12.93
2023-02-12T21:39:12.262Z,13.73
2023-02-12T21:41:40.879Z,13.57
2023-02-12T21:46:58.653Z,13.40
2023-02-12T21:52:12.078Z,13.95
2023-02-12T21:54:38.831Z,13.50
2023-02-12T21:57:05.552Z,13.45
2023-02-12T21:59:32.691Z,13.80
2023-02-12T22:01:59.582Z,13.88
2023-02-12T22:04:27.337Z,13.93
2023-02-12T22:06:54.199Z,13.87
2023-02-12T22:09:22.417Z,11.80
2023-02-12T22:11:49.376Z,12.60
2023-02-12T22:14:17.558Z,13.82
2023-02-12T22:16:45.263Z,13.75
2023-02-12T22:19:12.154Z,13.10
2023-02-12T22:21:40.702Z,13.65
2023-02-12T22:24:09.287Z,13.50
2023-02-12T22:26:36.474Z,13.80
2023-02-12T22:29:06.487Z,14.38
2023-02-12T22:31:36.023Z,13.95
2023-02-12T22:34:06.139Z,13.30
2023-02-12T22:36:35.589Z,13.10
2023-02-12T22:39:02.685Z,13.20
2023-02-12T22:41:29.649Z,13.23
2023-02-12T22:43:59.469Z,13.83
2023-02-12T22:46:26.512Z,14.10
2023-02-12T22:48:53.357Z,13.18
2023-02-12T22:51:24.405Z,13.40
2023-02-12T22:53:51.624Z,14.20
2023-02-12T22:56:19.251Z,13.65
2023-02-12T22:58:46.538Z,14.05
2023-02-12T23:01:16.562Z,13.23
2023-02-12T23:03:44.084Z,13.00
2023-02-12T23:06:16.685Z,14.30
2023-02-12T23:11:32.450Z,13.30
2023-02-12T23:16:46.377Z,13.68
2023-02-12T23:19:13.523Z,13.93
2023-02-12T23:21:40.716Z,14.10
2023-02-12T23:24:07.747Z,14.40
2023-02-12T23:26:34.525Z,13.80
2023-02-12T23:29:01.265Z,13.75
2023-02-12T23:31:28.161Z,14.02
2023-02-12T23:33:54.989Z,14.25
2023-02-12T23:36:21.954Z,15.23
2023-02-12T23:38:48.770Z,14.77
2023-02-12T23:41:15.540Z,14.20
2023-02-12T23:43:42.335Z,14.60
2023-02-12T23:46:09.184Z,13.97
2023-02-12T23:48:36.079Z,15.50
2023-02-12T23:51:02.960Z,14.57
2023-02-12T23:53:29.729Z,13.75
2023-02-12T23:55:56.572Z,13.13
2023-02-12T23:58:23.358Z,13.65
